Time;durP1;ratioP1;P1;durP2;ratioP2;P2;SDS_P1;SDS_P2;PMS_P1;PMS_P2;Temp;Humidity;BMP_temperature;BMP_pressure;BME280_temperature;BME280_humidity;BME280_pressure;Samples;Min_cycle;Max_cycle;Signal;HPM_P1;HPM_P2
2023/12/26 00:01:13;;;;;;;4.38;1.30;;;9.00;98.80;;;;;;4889436;29;20142;-77
2023/12/26 00:03:39;;;;;;;4.25;1.10;;;9.00;98.80;;;;;;4869566;29;20133;-77
2023/12/26 00:06:09;;;;;;;6.38;1.05;;;9.00;98.80;;;;;;4871204;29;20033;-75
2023/12/26 00:08:34;;;;;;;3.15;0.93;;;8.90;99.00;;;;;;4870584;29;20064;-77
2023/12/26 00:11:01;;;;;;;3.42;0.75;;;8.90;99.10;;;;;;4854116;29;20098;-77
2023/12/26 00:13:26;;;;;;;4.72;1.05;;;8.90;99.10;;;;;;4887541;29;20089;-77
2023/12/26 00:15:52;;;;;;;4.20;1.00;;;8.90;99.20;;;;;;4889104;29;20044;-77
2023/12/26 00:18:18;;;;;;;3.22;0.90;;;8.90;99.20;;;;;;4889494;29;20041;-77
2023/12/26 00:20:44;;;;;;;3.33;1.10;;;8.80;99.20;;;;;;4882149;29;20371;-77
2023/12/26 00:23:10;;;;;;;3.35;0.95;;;8.90;99.20;;;;;;4870408;29;20029;-75
2023/12/26 00:25:36;;;;;;;4.00;1.20;;;8.90;99.20;;;;;;4870139;29;20037;-76
2023/12/26 00:28:03;;;;;;;6.18;0.90;;;8.90;99.30;;;;;;4870514;29;20331;-77
2023/12/26 00:30:29;;;;;;;3.92;1.13;;;8.90;99.20;;;;;;4870370;29;20085;-76
2023/12/26 00:32:55;;;;;;;3.13;0.90;;;8.80;99.30;;;;;;4870631;29;20093;-77
2023/12/26 00:35:21;;;;;;;3.42;0.73;;;8.80;99.40;;;;;;4868772;29;20025;-76
2023/12/26 00:37:47;;;;;;;3.95;1.02;;;8.80;99.30;;;;;;4869556;29;20031;-77
2023/12/26 00:40:13;;;;;;;2.72;1.10;;;8.80;99.50;;;;;;4873865;29;20037;-77
2023/12/26 00:42:43;;;;;;;2.17;0.80;;;8.80;99.50;;;;;;4869749;29;20033;-76
2023/12/26 00:45:09;;;;;;;3.78;0.98;;;8.80;99.60;;;;;;4870651;29;20057;-76
2023/12/26 00:47:35;;;;;;;3.42;0.93;;;8.80;99.60;;;;;;4869290;29;20033;-76
2023/12/26 00:50:01;;;;;;;3.30;0.90;;;8.70;99.60;;;;;;4861463;29;20024;-78
2023/12/26 00:52:27;;;;;;;4.13;1.10;;;8.70;99.70;;;;;;4888410;29;20337;-76
2023/12/26 00:54:53;;;;;;;4.93;1.10;;;8.70;99.80;;;;;;4864293;29;20060;-76
2023/12/26 00:57:19;;;;;;;3.33;1.02;;;8.70;99.80;;;;;;4870227;29;20029;-75
2023/12/26 00:59:46;;;;;;;3.40;0.90;;;8.70;99.90;;;;;;4870030;29;20030;-76
2023/12/26 01:02:11;;;;;;;5.57;1.00;;;8.70;99.90;;;;;;4853872;29;20033;-76
2023/12/26 01:04:37;;;;;;;4.68;1.08;;;8.70;99.90;;;;;;4869984;29;20244;-76
2023/12/26 01:07:05;;;;;;;1.65;0.98;;;8.60;99.90;;;;;;4870116;29;20037;-76
2023/12/26 01:09:30;;;;;;;3.22;0.90;;;8.60;99.90;;;;;;4869515;29;20041;-77
2023/12/26 01:11:56;;;;;;;4.90;1.10;;;8.60;99.90;;;;;;4877895;29;20020;-77
2023/12/26 01:14:22;;;;;;;2.95;0.80;;;8.60;99.90;;;;;;4888666;29;20040;-76
2023/12/26 01:16:47;;;;;;;2.53;0.90;;;8.60;99.90;;;;;;4887197;29;20094;-75
2023/12/26 01:19:13;;;;;;;4.50;1.15;;;8.60;99.90;;;;;;4889251;29;20134;-76
2023/12/26 01:21:39;;;;;;;5.38;1.00;;;8.60;99.90;;;;;;4887001;29;20021;-77
2023/12/26 01:24:05;;;;;;;3.58;1.00;;;8.60;99.90;;;;;;4887518;29;20063;-76
2023/12/26 01:26:32;;;;;;;3.97;0.82;;;8.60;99.90;;;;;;4888264;29;20032;-76
2023/12/26 01:29:00;;;;;;;2.15;0.90;;;8.60;99.90;;;;;;4868677;29;20033;-76
2023/12/26 01:31:27;;;;;;;2.00;0.70;;;8.50;99.90;;;;;;4853180;29;20033;-76
2023/12/26 01:33:53;;;;;;;3.42;0.90;;;8.50;99.90;;;;;;4869576;29;20029;-75
2023/12/26 01:36:21;;;;;;;2.67;0.88;;;8.50;99.90;;;;;;4868916;29;20290;-77
2023/12/26 01:38:47;;;;;;;2.60;0.60;;;8.40;99.90;;;;;;4853154;29;20033;-75
2023/12/26 01:41:13;;;;;;;4.22;1.00;;;8.50;99.90;;;;;;4854156;29;20025;-77
2023/12/26 01:43:39;;;;;;;2.67;0.82;;;8.40;99.90;;;;;;4853551;29;20141;-77
2023/12/26 01:46:10;;;;;;;3.13;0.90;;;8.40;99.90;;;;;;4856673;29;20045;-77
2023/12/26 01:48:36;;;;;;;1.90;1.08;;;8.40;99.90;;;;;;4869591;29;20219;-79
2023/12/26 01:51:03;;;;;;;5.35;1.02;;;8.30;99.90;;;;;;4885100;29;20024;-75
2023/12/26 01:53:29;;;;;;;3.28;0.70;;;8.30;99.90;;;;;;4888128;29;20315;-76
2023/12/26 01:55:59;;;;;;;2.33;0.90;;;8.30;99.90;;;;;;4887953;29;20021;-76
2023/12/26 01:58:24;;;;;;;4.03;1.20;;;8.20;99.90;;;;;;4856735;29;20315;-76
2023/12/26 02:00:51;;;;;;;4.95;1.60;;;8.20;99.90;;;;;;4888064;29;20037;-76
2023/12/26 02:03:17;;;;;;;2.30;0.90;;;8.30;99.90;;;;;;4875946;29;20042;-76
2023/12/26 02:05:44;;;;;;;3.38;0.90;;;8.30;99.90;;;;;;4871854;29;20041;-75
2023/12/26 02:08:14;;;;;;;3.58;1.00;;;8.30;99.90;;;;;;4872867;29;20331;-76
2023/12/26 02:10:40;;;;;;;5.22;1.70;;;8.30;99.90;;;;;;4872907;29;20354;-77
2023/12/26 02:13:06;;;;;;;4.45;1.80;;;8.30;99.90;;;;;;4841549;29;20025;-77
2023/12/26 02:15:32;;;;;;;9.23;1.85;;;8.30;99.90;;;;;;4855679;29;20347;-76
2023/12/26 02:17:59;;;;;;;2.67;0.90;;;8.30;99.90;;;;;;4872709;29;20030;-76
2023/12/26 02:20:24;;;;;;;4.25;1.58;;;8.40;99.90;;;;;;4873604;29;20376;-76
2023/12/26 02:22:50;;;;;;;4.85;1.00;;;8.50;99.80;;;;;;4870942;29;20029;-77
2023/12/26 02:25:17;;;;;;;3.65;1.65;;;8.50;99.60;;;;;;4873307;29;20048;-77
2023/12/26 02:27:43;;;;;;;3.38;1.25;;;8.40;99.80;;;;;;4855866;29;20044;-76
2023/12/26 02:30:10;;;;;;;2.95;0.90;;;8.40;99.80;;;;;;4871934;29;20037;-75
2023/12/26 02:32:38;;;;;;;1.80;0.70;;;8.30;99.80;;;;;;4855657;29;20328;-77
2023/12/26 02:35:06;;;;;;;3.28;1.20;;;8.40;99.80;;;;;;4871504;29;20029;-76
2023/12/26 02:37:35;;;;;;;3.65;0.80;;;8.40;99.70;;;;;;4875256;29;20101;-76
2023/12/26 02:40:02;;;;;;;3.88;0.90;;;8.40;99.60;;;;;;4873126;29;20026;-76
2023/12/26 02:42:30;;;;;;;2.47;0.98;;;8.30;99.60;;;;;;4872488;29;20040;-76
2023/12/26 02:44:57;;;;;;;3.22;0.85;;;8.40;99.80;;;;;;4856319;29;20033;-76
2023/12/26 02:47:23;;;;;;;2.45;0.90;;;8.30;99.60;;;;;;4871545;29;20033;-76
2023/12/26 02:50:01;;;;;;;2.45;0.85;;;8.30;99.70;;;;;;4862183;29;20081;-76
2023/12/26 02:52:27;;;;;;;3.97;1.23;;;8.20;99.80;;;;;;4891722;29;20109;-76
2023/12/26 02:54:53;;;;;;;3.10;0.80;;;8.20;99.90;;;;;;4886309;29;20302;-76
2023/12/26 02:57:19;;;;;;;4.38;0.80;;;8.20;99.90;;;;;;4872798;29;20113;-76
2023/12/26 02:59:44;;;;;;;3.10;0.95;;;8.20;99.90;;;;;;4855591;29;20093;-78
2023/12/26 03:02:11;;;;;;;1.58;0.73;;;8.20;99.80;;;;;;4872693;29;20049;-76
2023/12/26 03:04:37;;;;;;;2.35;0.80;;;8.40;99.60;;;;;;4872079;29;20052;-77
2023/12/26 03:07:02;;;;;;;2.72;1.10;;;8.40;99.50;;;;;;4856038;29;20105;-77
2023/12/26 03:09:32;;;;;;;2.50;0.80;;;8.50;99.30;;;;;;4855556;29;20222;-76
2023/12/26 03:11:57;;;;;;;4.25;1.00;;;8.40;99.30;;;;;;4855797;29;20048;-77
2023/12/26 03:14:26;;;;;;;2.15;0.90;;;8.40;99.30;;;;;;4875123;29;20237;-77
2023/12/26 03:16:51;;;;;;;;;;;8.30;99.30;;;;;;4854996;29;20034;-77
2023/12/26 03:19:20;;;;;;;3.47;0.90;;;8.40;99.20;;;;;;4870768;29;20052;-77
2023/12/26 03:21:49;;;;;;;2.85;0.82;;;8.50;98.80;;;;;;4854432;29;20056;-76
2023/12/26 03:24:15;;;;;;;1.75;0.60;;;8.50;98.80;;;;;;4855367;29;20053;-77
2023/12/26 03:26:41;;;;;;;4.15;1.00;;;8.50;98.60;;;;;;4855320;29;20061;-77
2023/12/26 03:29:06;;;;;;;2.88;0.73;;;8.60;98.40;;;;;;4872444;29;20061;-76
2023/12/26 03:31:32;;;;;;;3.95;1.20;;;8.60;98.50;;;;;;4858236;29;20105;-80
2023/12/26 03:33:58;;;;;;;2.55;0.60;;;8.60;98.30;;;;;;4872022;29;20093;-78
2023/12/26 03:36:24;;;;;;;2.25;0.77;;;8.60;98.20;;;;;;4870749;29;20029;-77
2023/12/26 03:38:50;;;;;;;1.80;0.60;;;8.60;98.20;;;;;;4870438;29;20029;-77
2023/12/26 03:41:16;;;;;;;4.40;0.85;;;8.70;98.00;;;;;;4871860;29;20069;-78
2023/12/26 03:43:46;;;;;;;3.70;0.82;;;8.70;98.00;;;;;;4854602;29;20025;-76
2023/12/26 03:46:11;;;;;;;3.55;0.70;;;8.60;98.00;;;;;;4855345;29;20115;-76
2023/12/26 03:48:37;;;;;;;2.17;0.70;;;8.70;97.90;;;;;;4874873;29;20092;-76
2023/12/26 03:51:06;;;;;;;4.07;1.10;;;8.70;97.80;;;;;;4887414;29;20025;-77
2023/12/26 03:53:31;;;;;;;2.65;0.95;;;8.80;97.70;;;;;;4890552;29;20030;-76
2023/12/26 03:55:57;;;;;;;3.08;0.90;;;8.70;97.80;;;;;;4890038;29;20028;-76
2023/12/26 03:58:23;;;;;;;2.70;0.70;;;8.70;97.80;;;;;;4889223;29;20254;-76
2023/12/26 04:00:49;;;;;;;3.63;1.10;;;8.70;97.90;;;;;;4889272;29;20181;-78
2023/12/26 04:03:16;;;;;;;4.25;0.93;;;8.70;97.60;;;;;;4886774;29;20053;-77
2023/12/26 04:05:45;;;;;;;1.90;0.70;;;8.70;97.70;;;;;;4854461;29;20069;-76
2023/12/26 04:08:11;;;;;;;3.78;0.80;;;8.70;97.60;;;;;;4871600;29;20334;-78
2023/12/26 04:10:38;;;;;;;2.15;0.82;;;8.70;97.80;;;;;;4854015;29;20025;-76
2023/12/26 04:13:07;;;;;;;2.85;0.85;;;8.60;97.80;;;;;;4840080;29;20037;-77
2023/12/26 04:15:36;;;;;;;1.70;0.60;;;8.60;97.80;;;;;;4854517;29;20018;-76
2023/12/26 04:18:02;;;;;;;3.15;0.65;;;8.60;98.10;;;;;;4871042;29;20049;-78
2023/12/26 04:20:28;;;;;;;3.88;0.95;;;8.60;97.80;;;;;;4857501;29;20247;-76
2023/12/26 04:22:54;;;;;;;2.30;0.80;;;8.60;97.90;;;;;;4854256;29;20061;-78
2023/12/26 04:25:26;;;;;;;3.83;0.70;;;8.50;97.90;;;;;;4871337;29;20029;-79
2023/12/26 04:27:55;;;;;;;2.65;0.90;;;8.50;98.00;;;;;;4853778;29;20033;-76
2023/12/26 04:30:24;;;;;;;7.03;0.80;;;8.50;98.20;;;;;;4869850;29;20033;-78
2023/12/26 04:32:53;;;;;;;3.25;1.48;;;8.50;98.00;;;;;;4870450;29;20030;-78
2023/12/26 04:35:19;;;;;;;3.50;0.80;;;8.50;98.00;;;;;;4854569;29;20022;-76
2023/12/26 04:37:45;;;;;;;3.17;0.80;;;8.50;97.80;;;;;;4880715;29;20056;-78
2023/12/26 04:40:11;;;;;;;2.53;0.75;;;8.60;97.70;;;;;;4872698;29;20041;-79
2023/12/26 04:42:40;;;;;;;2.45;0.75;;;8.60;97.70;;;;;;4888061;29;20280;-76
2023/12/26 04:45:20;;;;;;;4.05;0.90;;;8.60;97.80;;;;;;4888151;29;20029;-78
2023/12/26 04:48:14;;;;;;;3.40;0.90;;;8.60;97.70;;;;;;4889047;29;20048;-77
2023/12/26 04:50:43;;;;;;;4.40;0.80;;;8.70;97.80;;;;;;4872080;29;20116;-78
2023/12/26 04:53:21;;;;;;;6.15;0.95;;;8.70;97.60;;;;;;4889556;29;20051;-76
2023/12/26 04:55:46;;;;;;;7.10;2.03;;;8.70;97.50;;;;;;4877357;29;20256;-76
2023/12/26 04:58:15;;;;;;;8.40;2.20;;;8.80;97.50;;;;;;4854100;29;20082;-76
2023/12/26 05:00:43;;;;;;;4.63;1.30;;;8.80;97.50;;;;;;4853877;29;20253;-77
2023/12/26 05:03:09;;;;;;;2.78;1.20;;;8.80;97.40;;;;;;4854706;29;20050;-76
2023/12/26 05:05:56;;;;;;;4.38;1.10;;;8.80;97.70;;;;;;4853693;29;20038;-76
2023/12/26 05:08:21;;;;;;;4.57;0.80;;;8.80;97.40;;;;;;4870214;29;20117;-77
2023/12/26 05:10:46;;;;;;;4.72;1.02;;;8.90;97.20;;;;;;4855283;29;20323;-77
2023/12/26 05:13:18;;;;;;;4.30;0.90;;;8.90;97.20;;;;;;4871917;29;20033;-77
2023/12/26 05:15:44;;;;;;;5.18;0.90;;;8.90;97.10;;;;;;4869286;29;20030;-76
2023/12/26 05:18:13;;;;;;;7.75;1.65;;;8.90;97.20;;;;;;4854115;29;20033;-75
2023/12/26 05:20:39;;;;;;;5.03;0.93;;;8.90;97.20;;;;;;4853415;29;20025;-75
2023/12/26 05:23:23;;;;;;;3.83;1.20;;;8.90;97.10;;;;;;4853770;29;20117;-76
2023/12/26 05:25:49;;;;;;;3.83;1.08;;;9.00;97.00;;;;;;4853469;29;20349;-76
2023/12/26 05:28:15;;;;;;;3.08;0.75;;;9.00;97.00;;;;;;4849444;29;20029;-76
2023/12/26 05:30:42;;;;;;;5.95;1.10;;;9.00;97.00;;;;;;4871957;29;20025;-77
2023/12/26 05:33:08;;;;;;;4.15;1.05;;;9.00;96.90;;;;;;4856659;29;20025;-77
2023/12/26 05:35:34;;;;;;;3.65;1.20;;;9.10;96.80;;;;;;4871245;29;20020;-75
2023/12/26 05:38:03;;;;;;;3.40;0.75;;;9.10;96.70;;;;;;4887835;29;20044;-77
2023/12/26 05:40:30;;;;;;;4.90;1.10;;;9.10;96.80;;;;;;4875267;29;20060;-77
2023/12/26 05:42:56;;;;;;;4.38;1.00;;;9.10;96.70;;;;;;4860173;29;20334;-76
2023/12/26 05:45:23;;;;;;;3.17;0.98;;;9.20;96.70;;;;;;4867131;29;20033;-75
2023/12/26 05:47:49;;;;;;;6.13;1.23;;;9.20;96.60;;;;;;4855847;29;20056;-75
2023/12/26 05:50:17;;;;;;;5.18;1.00;;;9.20;96.50;;;;;;4866433;29;20077;-76
2023/12/26 05:52:46;;;;;;;5.35;1.02;;;9.20;96.50;;;;;;4874542;29;20064;-78
2023/12/26 05:55:12;;;;;;;3.70;0.80;;;9.30;96.40;;;;;;4892604;29;20036;-77
2023/12/26 05:57:41;;;;;;;5.30;1.10;;;9.30;96.30;;;;;;4874542;29;20024;-76
2023/12/26 06:00:09;;;;;;;4.85;0.88;;;9.30;96.30;;;;;;4890881;29;20025;-75
2023/12/26 06:02:42;;;;;;;3.58;0.90;;;9.30;96.30;;;;;;4878790;29;20017;-75
2023/12/26 06:05:10;;;;;;;5.35;1.30;;;9.30;96.30;;;;;;4856833;29;20034;-74
2023/12/26 06:07:35;;;;;;;4.07;1.00;;;9.20;96.40;;;;;;4856103;29;20057;-76
2023/12/26 06:10:04;;;;;;;4.30;0.90;;;9.20;96.50;;;;;;4856297;29;20212;-76
2023/12/26 06:12:33;;;;;;;4.60;1.30;;;9.20;96.50;;;;;;4871322;29;20056;-77
2023/12/26 06:15:02;;;;;;;4.60;1.13;;;9.20;96.60;;;;;;4856334;29;20025;-78
2023/12/26 06:17:32;;;;;;;3.95;0.90;;;9.20;96.50;;;;;;4856038;29;20032;-78
2023/12/26 06:20:08;;;;;;;3.95;1.25;;;9.20;96.50;;;;;;4872103;29;20081;-78
2023/12/26 06:22:53;;;;;;;5.22;1.35;;;9.10;96.60;;;;;;4871613;29;20037;-78
2023/12/26 06:25:19;;;;;;;3.53;1.08;;;9.10;96.70;;;;;;4871952;29;20100;-78
2023/12/26 06:27:44;;;;;;;4.45;1.00;;;9.20;96.60;;;;;;4871810;29;20275;-77
2023/12/26 06:30:20;;;;;;;4.85;1.10;;;9.10;96.60;;;;;;4872881;29;20025;-77
2023/12/26 06:32:45;;;;;;;8.27;1.10;;;9.10;96.60;;;;;;4872429;29;20299;-78
2023/12/26 06:35:17;;;;;;;5.18;1.10;;;9.10;96.60;;;;;;4872377;29;20101;-77
2023/12/26 06:37:43;;;;;;;4.93;1.13;;;9.10;96.70;;;;;;4874253;29;20223;-77
2023/12/26 06:40:09;;;;;;;4.50;0.90;;;9.00;96.80;;;;;;4891451;29;20025;-77
2023/12/26 06:42:35;;;;;;;4.95;0.90;;;9.10;96.60;;;;;;4890363;29;20197;-77
2023/12/26 06:45:01;;;;;;;5.93;1.02;;;9.20;96.40;;;;;;4874192;29;20035;-78
2023/12/26 06:47:33;;;;;;;3.03;1.00;;;9.20;96.40;;;;;;4874549;29;20053;-77
2023/12/26 06:49:59;;;;;;;6.70;1.33;;;9.30;96.40;;;;;;4873986;29;20035;-77
2023/12/26 06:52:37;;;;;;;4.93;1.30;;;9.20;96.40;;;;;;4874719;29;20248;-76
2023/12/26 06:55:03;;;;;;;5.70;1.38;;;9.30;96.30;;;;;;4855437;29;20025;-78
2023/12/26 06:57:29;;;;;;;6.13;1.08;;;9.30;96.40;;;;;;4871420;29;20064;-77
2023/12/26 06:59:55;;;;;;;4.18;1.15;;;9.20;96.50;;;;;;4871775;29;20047;-78
2023/12/26 07:02:21;;;;;;;5.50;1.30;;;9.20;96.50;;;;;;4872010;29;20033;-76
2023/12/26 07:04:47;;;;;;;5.05;1.30;;;9.10;96.60;;;;;;4872020;29;20389;-78
2023/12/26 07:07:16;;;;;;;4.65;1.05;;;9.10;96.60;;;;;;4871104;29;20044;-77
2023/12/26 07:09:48;;;;;;;4.60;1.30;;;9.10;96.70;;;;;;4871544;29;20029;-78
2023/12/26 07:12:32;;;;;;;4.38;1.05;;;9.00;96.80;;;;;;4871590;29;20030;-77
2023/12/26 07:15:00;;;;;;;4.15;1.20;;;9.00;96.90;;;;;;4872718;29;20041;-78
2023/12/26 07:17:35;;;;;;;3.45;1.05;;;8.90;97.10;;;;;;4871378;29;20029;-79
2023/12/26 07:20:08;;;;;;;5.25;1.05;;;8.90;97.10;;;;;;4872305;29;20113;-78
2023/12/26 07:22:46;;;;;;;4.45;1.05;;;8.90;97.10;;;;;;4877737;29;20056;-79
2023/12/26 07:25:12;;;;;;;5.40;1.55;;;8.90;97.10;;;;;;4859498;29;20056;-77
2023/12/26 07:27:52;;;;;;;6.13;1.17;;;8.90;97.20;;;;;;4874131;29;20044;-78
2023/12/26 07:30:24;;;;;;;7.88;1.40;;;8.90;97.10;;;;;;4874517;29;20029;-77
2023/12/26 07:32:51;;;;;;;3.60;1.00;;;8.90;97.20;;;;;;4873995;29;20029;-77
2023/12/26 07:35:17;;;;;;;3.45;1.20;;;8.80;97.30;;;;;;4874337;29;20028;-77
2023/12/26 07:37:42;;;;;;;4.32;1.20;;;8.90;97.30;;;;;;4873969;29;20299;-76
2023/12/26 07:40:09;;;;;;;6.47;1.52;;;8.90;97.30;;;;;;4866108;29;20030;-77
2023/12/26 07:42:35;;;;;;;3.28;1.15;;;8.90;97.20;;;;;;4855311;29;20026;-77
2023/12/26 07:45:00;;;;;;;6.07;1.38;;;8.90;97.10;;;;;;4855578;29;20108;-78
2023/12/26 07:47:26;;;;;;;7.95;1.63;;;9.00;97.20;;;;;;4839964;29;20052;-77
2023/12/26 07:49:55;;;;;;;6.50;1.05;;;9.00;97.10;;;;;;4861071;29;20084;-77
2023/12/26 07:52:46;;;;;;;;;;;;;;;;;;;;;
2023/12/26 07:55:15;;;;;;;5.40;1.20;;;8.90;97.20;;;;;;4889499;29;20312;-77
2023/12/26 07:57:44;;;;;;;7.50;1.15;;;9.00;97.20;;;;;;4885736;29;20040;-78
2023/12/26 08:00:12;;;;;;;6.70;1.13;;;9.00;97.00;;;;;;4856086;29;20030;-78
2023/12/26 08:02:43;;;;;;;5.77;1.07;;;9.00;97.30;;;;;;4852398;29;20029;-78
2023/12/26 08:05:09;;;;;;;6.45;1.20;;;9.00;97.20;;;;;;4855298;29;20484;-78
2023/12/26 08:07:35;;;;;;;5.55;1.13;;;9.10;97.00;;;;;;4870965;29;20033;-77
2023/12/26 08:10:02;;;;;;;5.07;1.00;;;9.10;96.90;;;;;;4855026;29;20053;-77
2023/12/26 08:12:28;;;;;;;3.38;1.05;;;9.10;96.90;;;;;;4854242;29;20061;-79
2023/12/26 08:14:54;;;;;;;4.13;0.90;;;9.20;96.80;;;;;;4873980;29;20028;-77
2023/12/26 08:17:37;;;;;;;5.15;1.48;;;9.30;96.60;;;;;;4854705;29;20318;-79
2023/12/26 08:20:04;;;;;;;5.78;1.00;;;9.30;96.60;;;;;;4854488;29;20391;-77
2023/12/26 08:22:30;;;;;;;10.45;1.80;;;9.30;96.50;;;;;;4869011;29;20035;-75
2023/12/26 08:24:56;;;;;;;4.88;1.30;;;9.30;96.40;;;;;;4856109;29;20022;-75
2023/12/26 08:27:22;;;;;;;6.72;1.45;;;9.30;96.40;;;;;;4889124;29;20040;-76
2023/12/26 08:29:49;;;;;;;5.07;1.00;;;9.40;96.50;;;;;;4888230;29;20041;-77
2023/12/26 08:32:15;;;;;;;4.10;1.10;;;9.50;96.10;;;;;;4877701;29;20040;-75
2023/12/26 08:34:44;;;;;;;4.80;1.20;;;9.50;96.10;;;;;;4870039;29;20060;-77
2023/12/26 08:37:11;;;;;;;5.60;1.45;;;9.50;95.90;;;;;;4853961;29;20025;-76
2023/12/26 08:39:37;;;;;;;4.10;1.13;;;9.50;95.90;;;;;;4869516;29;20017;-75
2023/12/26 08:42:03;;;;;;;5.40;1.02;;;9.60;95.90;;;;;;4870049;29;20302;-76
2023/12/26 08:44:29;;;;;;;3.63;1.00;;;9.60;95.90;;;;;;4869727;29;20049;-74
2023/12/26 08:46:55;;;;;;;5.53;1.17;;;9.60;95.80;;;;;;4853435;29;20077;-74
2023/12/26 08:49:21;;;;;;;6.45;1.35;;;9.60;95.80;;;;;;4875264;29;20326;-73
2023/12/26 08:51:46;;;;;;;5.18;1.10;;;9.70;95.70;;;;;;4886852;29;20055;-74
2023/12/26 08:54:12;;;;;;;8.30;1.17;;;9.70;95.70;;;;;;4888706;29;20032;-75
2023/12/26 08:56:41;;;;;;;3.50;1.10;;;9.80;95.70;;;;;;4888116;29;20041;-76
2023/12/26 08:59:07;;;;;;;4.57;1.58;;;9.80;95.60;;;;;;4888547;29;20033;-74
2023/12/26 09:01:36;;;;;;;7.82;1.10;;;9.80;95.60;;;;;;4887689;29;20080;-76
2023/12/26 09:04:02;;;;;;;7.05;1.20;;;9.80;95.70;;;;;;4888491;29;20041;-75
2023/12/26 09:06:28;;;;;;;6.93;1.63;;;9.90;95.60;;;;;;4885026;29;20104;-76
2023/12/26 09:08:54;;;;;;;6.60;1.10;;;9.90;95.60;;;;;;4869923;29;20029;-75
2023/12/26 09:11:20;;;;;;;4.78;1.00;;;9.90;95.50;;;;;;4869721;29;20097;-75
2023/12/26 09:13:46;;;;;;;3.72;1.10;;;9.90;95.50;;;;;;4872651;29;20260;-74
2023/12/26 09:16:12;;;;;;;5.30;1.00;;;10.00;95.40;;;;;;4859779;29;20326;-75
2023/12/26 09:18:39;;;;;;;6.70;1.10;;;10.00;95.50;;;;;;4875704;29;20025;-74
2023/12/26 09:21:05;;;;;;;6.28;1.17;;;10.00;95.40;;;;;;4876001;29;20037;-75
2023/12/26 09:23:31;;;;;;;6.15;1.33;;;10.00;95.40;;;;;;4878563;29;20084;-74
2023/12/26 09:25:56;;;;;;;3.05;0.88;;;10.00;95.40;;;;;;4876110;29;20040;-74
2023/12/26 09:28:22;;;;;;;4.20;0.95;;;10.00;95.60;;;;;;4907358;29;20180;-76
2023/12/26 09:30:48;;;;;;;8.52;1.30;;;10.00;95.70;;;;;;4913043;29;20354;-74
2023/12/26 09:33:14;;;;;;;4.55;1.05;;;10.00;95.50;;;;;;4896156;29;20028;-74
2023/12/26 09:35:40;;;;;;;4.32;1.10;;;10.10;95.50;;;;;;4912417;29;20040;-74
2023/12/26 09:38:05;;;;;;;4.03;1.65;;;10.00;95.60;;;;;;4912866;29;20312;-73
2023/12/26 09:40:34;;;;;;;4.05;0.90;;;10.10;95.50;;;;;;4912308;29;20032;-78
2023/12/26 09:43:02;;;;;;;3.70;0.80;;;10.20;95.50;;;;;;4913017;29;20040;-75
2023/12/26 09:45:28;;;;;;;7.40;1.00;;;10.20;95.50;;;;;;4912674;29;20024;-72
2023/12/26 09:47:54;;;;;;;5.05;0.95;;;10.20;95.40;;;;;;4912790;29;20043;-74
2023/12/26 09:50:20;;;;;;;4.57;0.70;;;10.20;95.40;;;;;;4903122;29;20029;-77
2023/12/26 09:52:58;;;;;;;4.72;1.00;;;10.20;95.50;;;;;;4892497;29;20025;-75
2023/12/26 09:55:27;;;;;;;4.23;1.03;;;10.20;95.50;;;;;;4899145;29;20027;-75
2023/12/26 09:57:56;;;;;;;3.80;1.15;;;10.30;95.50;;;;;;4894171;29;20037;-75
2023/12/26 10:00:24;;;;;;;3.78;0.90;;;10.40;95.50;;;;;;4894122;29;20308;-74
2023/12/26 10:02:51;;;;;;;6.75;1.35;;;10.40;95.30;;;;;;4893478;29;20044;-72
2023/12/26 10:05:16;;;;;;;4.22;0.70;;;10.40;95.30;;;;;;4894287;29;20327;-74
2023/12/26 10:07:42;;;;;;;5.68;1.08;;;10.50;95.20;;;;;;4893471;29;20147;-75
2023/12/26 10:10:11;;;;;;;5.55;0.82;;;10.50;95.20;;;;;;4893141;29;20065;-75
2023/12/26 10:12:37;;;;;;;5.25;0.90;;;10.50;95.30;;;;;;4893417;29;20319;-73
2023/12/26 10:15:04;;;;;;;3.67;0.88;;;10.50;95.20;;;;;;4894274;29;20021;-76
2023/12/26 10:17:32;;;;;;;2.60;0.60;;;10.60;95.20;;;;;;4893534;29;20112;-73
2023/12/26 10:19:59;;;;;;;2.83;0.80;;;10.60;95.10;;;;;;4894469;29;20037;-73
2023/12/26 10:22:25;;;;;;;2.67;0.75;;;10.70;95.20;;;;;;4893989;29;20036;-76
2023/12/26 10:24:51;;;;;;;5.88;1.00;;;10.80;95.00;;;;;;4891502;29;20048;-76
2023/12/26 10:27:17;;;;;;;3.70;0.80;;;10.70;94.90;;;;;;4890018;29;20061;-77
2023/12/26 10:29:54;;;;;;;2.08;0.90;;;10.90;94.80;;;;;;4890580;29;20025;-78
2023/12/26 10:32:24;;;;;;;2.60;0.60;;;10.90;94.70;;;;;;4858844;29;20080;-76
2023/12/26 10:34:50;;;;;;;2.67;0.88;;;10.90;94.80;;;;;;4890565;29;20036;-76
2023/12/26 10:37:21;;;;;;;4.30;0.70;;;10.90;94.60;;;;;;4889992;29;20059;-77
2023/12/26 10:39:52;;;;;;;2.00;0.60;;;10.90;94.60;;;;;;4889458;29;20037;-72
2023/12/26 10:42:18;;;;;;;3.00;0.85;;;10.90;94.90;;;;;;4890786;29;20040;-73
2023/12/26 10:45:07;;;;;;;3.05;0.60;;;10.90;94.90;;;;;;4889998;29;20051;-72
2023/12/26 10:47:33;;;;;;;;;;;10.90;94.80;;;;;;4890562;29;20032;-75
2023/12/26 10:50:03;;;;;;;3.20;0.75;;;10.90;94.80;;;;;;4890676;29;19908;-74
2023/12/26 10:52:30;;;;;;;2.72;0.60;;;10.90;94.90;;;;;;4890422;29;20021;-75
2023/12/26 10:55:05;;;;;;;3.85;0.73;;;10.90;94.90;;;;;;4890678;29;20048;-74
2023/12/26 10:57:32;;;;;;;6.03;0.93;;;10.90;94.80;;;;;;4890240;29;20051;-74
2023/12/26 11:00:48;;;;;;;3.88;1.00;;;10.80;95.00;;;;;;4890552;29;20044;-74
2023/12/26 14:02:08;;;;;;;1.67;0.40;;;11.10;96.60;;;;;;4870382;29;20041;-74
2023/12/26 14:05:12;;;;;;;1.92;0.40;;;11.10;96.80;;;;;;4868096;29;20062;-73
2023/12/26 14:08:17;;;;;;;1.27;0.40;;;11.00;96.80;;;;;;4854151;29;20053;-72
2023/12/26 14:11:20;;;;;;;1.70;0.40;;;11.10;96.90;;;;;;4854121;29;20044;-75
2023/12/26 14:14:23;;;;;;;0.75;0.30;;;11.10;96.90;;;;;;4852437;29;20041;-71
2023/12/26 14:17:27;;;;;;;1.95;0.57;;;11.00;96.80;;;;;;4852336;29;20102;-72
2023/12/26 14:20:30;;;;;;;0.95;0.30;;;11.00;97.10;;;;;;4854078;29;20032;-72
2023/12/26 14:23:33;;;;;;;4.07;2.15;;;11.00;97.00;;;;;;4854114;29;20065;-74
2023/12/26 14:26:36;;;;;;;12.35;7.82;;;11.00;97.10;;;;;;4853865;29;20030;-72
2023/12/26 14:29:39;;;;;;;1.95;0.57;;;11.00;97.10;;;;;;4853960;29;20034;-73
2023/12/26 14:32:42;;;;;;;1.27;0.30;;;10.90;97.20;;;;;;4853793;29;20101;-72
2023/12/26 14:35:46;;;;;;;4.65;2.20;;;10.90;97.30;;;;;;4852400;29;20036;-71
2023/12/26 14:38:49;;;;;;;8.75;3.90;;;10.80;97.30;;;;;;4852752;29;20045;-74
2023/12/26 14:41:52;;;;;;;1.90;0.40;;;10.80;97.40;;;;;;4854109;29;20044;-72
2023/12/26 14:44:55;;;;;;;8.20;4.35;;;10.80;97.30;;;;;;4853644;29;20038;-71
2023/12/26 14:47:58;;;;;;;2.05;0.95;;;10.70;97.50;;;;;;4853319;29;20045;-73
2023/12/26 14:51:04;;;;;;;1.60;0.43;;;10.70;97.50;;;;;;4853902;29;20321;-72
2023/12/26 14:54:07;;;;;;;1.42;0.40;;;10.70;97.50;;;;;;4853201;29;20057;-73
2023/12/26 14:57:10;;;;;;;1.33;0.43;;;10.70;97.50;;;;;;4853013;29;20066;-73
2023/12/26 15:00:13;;;;;;;1.85;0.50;;;10.70;97.50;;;;;;4852822;29;20045;-73
2023/12/26 15:02:46;;;;;;;1.83;0.57;;;10.70;97.50;;;;;;4853417;29;20037;-72
2023/12/26 15:05:14;;;;;;;4.32;1.13;;;10.70;97.70;;;;;;4872005;29;20041;-73
2023/12/26 15:07:40;;;;;;;1.65;0.60;;;10.60;97.70;;;;;;4871356;29;20316;-73
2023/12/26 15:10:23;;;;;;;3.90;1.83;;;10.60;97.70;;;;;;4870706;29;20036;-73
2023/12/26 15:12:49;;;;;;;2.22;0.88;;;10.60;97.80;;;;;;4854188;29;20053;-74
2023/12/26 15:15:18;;;;;;;2.50;0.80;;;10.60;97.90;;;;;;4871479;29;20037;-72
2023/12/26 15:17:49;;;;;;;3.08;0.93;;;10.60;97.90;;;;;;4871056;29;20311;-74
2023/12/26 15:20:18;;;;;;;2.80;0.80;;;10.60;98.00;;;;;;4871267;29;20384;-72
2023/12/26 15:22:47;;;;;;;3.28;0.80;;;10.60;97.90;;;;;;4871613;29;20034;-74
2023/12/26 15:25:15;;;;;;;3.28;0.90;;;10.60;98.00;;;;;;4871586;29;20025;-73
2023/12/26 15:27:41;;;;;;;4.18;1.13;;;10.60;98.00;;;;;;4883715;29;20033;-72
2023/12/26 15:30:11;;;;;;;2.25;1.10;;;10.60;98.10;;;;;;4889906;29;20351;-75
2023/12/26 15:32:37;;;;;;;2.45;0.70;;;10.50;98.10;;;;;;4889246;29;20351;-73
2023/12/26 15:35:11;;;;;;;4.18;2.15;;;10.50;98.10;;;;;;4889831;29;20324;-72
2023/12/26 15:37:37;;;;;;;3.17;1.00;;;10.50;98.20;;;;;;4872667;29;20033;-72
2023/12/26 15:40:06;;;;;;;3.75;1.13;;;10.50;98.30;;;;;;4889696;29;20193;-76
2023/12/26 15:42:32;;;;;;;2.47;0.80;;;10.50;98.40;;;;;;4872753;29;20367;-73
2023/12/26 15:44:58;;;;;;;2.95;1.15;;;10.40;98.30;;;;;;4888692;29;20069;-73
2023/12/26 15:47:24;;;;;;;2.75;0.80;;;10.40;98.40;;;;;;4889537;29;20033;-73
2023/12/26 15:49:49;;;;;;;3.10;1.10;;;10.40;98.40;;;;;;4889335;29;20226;-76
2023/12/26 15:52:18;;;;;;;2.15;0.60;;;10.40;98.40;;;;;;4889761;29;20084;-74
2023/12/26 15:54:46;;;;;;;;;;;10.40;98.30;;;;;;4888535;29;20060;-73
2023/12/26 15:57:12;;;;;;;2.42;0.80;;;10.40;98.40;;;;;;4889511;29;19962;-73
2023/12/26 15:59:38;;;;;;;2.65;0.65;;;10.40;98.40;;;;;;4888826;29;20256;-72
2023/12/26 16:02:07;;;;;;;2.90;1.00;;;10.40;98.30;;;;;;4889580;29;20044;-73
2023/12/26 16:04:32;;;;;;;2.13;0.65;;;10.30;98.40;;;;;;4889210;29;20049;-72
2023/12/26 16:06:58;;;;;;;3.15;1.05;;;10.30;98.50;;;;;;4889305;29;20040;-71
2023/12/26 16:09:28;;;;;;;3.00;0.80;;;10.30;98.50;;;;;;4889347;29;20040;-75